sensor_id;sensor_type;location;lat;lon;timestamp;P1;durP1;ratioP1;P2;durP2;ratioP2
47922;SDS011;33688;44.354;9.228;2023-04-24T00:01:59;1.10;;;0.93;;
47922;SDS011;33688;44.354;9.228;2023-04-24T00:04:28;0.80;;;0.77;;
47922;SDS011;33688;44.354;9.228;2023-04-24T00:06:54;0.90;;;0.90;;
47922;SDS011;33688;44.354;9.228;2023-04-24T00:09:22;1.10;;;1.00;;
47922;SDS011;33688;44.354;9.228;2023-04-24T00:11:49;0.75;;;0.75;;
47922;SDS011;33688;44.354;9.228;2023-04-24T00:14:17;0.80;;;0.80;;
47922;SDS011;33688;44.354;9.228;2023-04-24T00:16:43;0.80;;;0.80;;
47922;SDS011;33688;44.354;9.228;2023-04-24T00:19:09;1.35;;;0.90;;
47922;SDS011;33688;44.354;9.228;2023-04-24T00:21:36;0.68;;;0.68;;
47922;SDS011;33688;44.354;9.228;2023-04-24T00:26:35;0.95;;;0.95;;
47922;SDS011;33688;44.354;9.228;2023-04-24T00:29:01;0.85;;;0.85;;
47922;SDS011;33688;44.354;9.228;2023-04-24T00:31:27;1.25;;;1.00;;
47922;SDS011;33688;44.354;9.228;2023-04-24T00:33:55;1.10;;;1.00;;
47922;SDS011;33688;44.354;9.228;2023-04-24T00:36:20;1.30;;;1.20;;
47922;SDS011;33688;44.354;9.228;2023-04-24T00:38:47;1.10;;;1.00;;
47922;SDS011;33688;44.354;9.228;2023-04-24T00:41:13;0.93;;;0.70;;
47922;SDS011;33688;44.354;9.228;2023-04-24T00:43:39;0.98;;;0.88;;
47922;SDS011;33688;44.354;9.228;2023-04-24T00:46:04;1.15;;;0.68;;
47922;SDS011;33688;44.354;9.228;2023-04-24T00:48:32;1.00;;;0.90;;
47922;SDS011;33688;44.354;9.228;2023-04-24T00:50:59;0.80;;;0.80;;
47922;SDS011;33688;44.354;9.228;2023-04-24T00:56:17;0.70;;;0.70;;
47922;SDS011;33688;44.354;9.228;2023-04-24T00:58:45;0.80;;;0.80;;
47922;SDS011;33688;44.354;9.228;2023-04-24T01:01:12;1.15;;;1.00;;
47922;SDS011;33688;44.354;9.228;2023-04-24T01:03:39;0.70;;;0.60;;
47922;SDS011;33688;44.354;9.228;2023-04-24T01:06:06;0.70;;;0.70;;
47922;SDS011;33688;44.354;9.228;2023-04-24T01:11:25;0.52;;;0.52;;
47922;SDS011;33688;44.354;9.228;2023-04-24T01:13:51;1.35;;;0.90;;
47922;SDS011;33688;44.354;9.228;2023-04-24T01:16:18;0.90;;;0.60;;
47922;SDS011;33688;44.354;9.228;2023-04-24T01:18:47;1.08;;;0.95;;
47922;SDS011;33688;44.354;9.228;2023-04-24T01:21:13;1.13;;;0.98;;
47922;SDS011;33688;44.354;9.228;2023-04-24T01:23:43;1.00;;;0.90;;
47922;SDS011;33688;44.354;9.228;2023-04-24T01:26:11;0.75;;;0.70;;
47922;SDS011;33688;44.354;9.228;2023-04-24T01:28:38;0.85;;;0.85;;
47922;SDS011;33688;44.354;9.228;2023-04-24T01:33:50;0.95;;;0.80;;
47922;SDS011;33688;44.354;9.228;2023-04-24T01:36:16;0.80;;;0.80;;
47922;SDS011;33688;44.354;9.228;2023-04-24T01:38:44;0.68;;;0.68;;
47922;SDS011;33688;44.354;9.228;2023-04-24T01:41:10;0.68;;;0.68;;
47922;SDS011;33688;44.354;9.228;2023-04-24T01:43:36;0.93;;;0.63;;
47922;SDS011;33688;44.354;9.228;2023-04-24T01:46:03;0.80;;;0.80;;
47922;SDS011;33688;44.354;9.228;2023-04-24T01:48:29;1.45;;;0.63;;
47922;SDS011;33688;44.354;9.228;2023-04-24T01:50:56;0.60;;;0.60;;
47922;SDS011;33688;44.354;9.228;2023-04-24T01:53:22;0.60;;;0.60;;
47922;SDS011;33688;44.354;9.228;2023-04-24T01:55:49;0.65;;;0.65;;
47922;SDS011;33688;44.354;9.228;2023-04-24T01:58:14;1.15;;;0.70;;
47922;SDS011;33688;44.354;9.228;2023-04-24T02:03:09;0.63;;;0.60;;
47922;SDS011;33688;44.354;9.228;2023-04-24T02:05:34;1.58;;;0.80;;
47922;SDS011;33688;44.354;9.228;2023-04-24T02:08:02;0.90;;;0.90;;
47922;SDS011;33688;44.354;9.228;2023-04-24T02:10:29;0.60;;;0.60;;
47922;SDS011;33688;44.354;9.228;2023-04-24T02:12:57;1.25;;;0.90;;
47922;SDS011;33688;44.354;9.228;2023-04-24T02:15:24;0.85;;;0.70;;
47922;SDS011;33688;44.354;9.228;2023-04-24T02:17:50;0.98;;;0.95;;
47922;SDS011;33688;44.354;9.228;2023-04-24T02:20:16;1.60;;;0.88;;
47922;SDS011;33688;44.354;9.228;2023-04-24T02:22:42;1.30;;;0.95;;
47922;SDS011;33688;44.354;9.228;2023-04-24T02:25:09;0.80;;;0.80;;
47922;SDS011;33688;44.354;9.228;2023-04-24T02:27:35;0.60;;;0.60;;
47922;SDS011;33688;44.354;9.228;2023-04-24T02:30:04;2.15;;;1.02;;
47922;SDS011;33688;44.354;9.228;2023-04-24T02:32:31;1.15;;;0.80;;
47922;SDS011;33688;44.354;9.228;2023-04-24T02:37:41;1.52;;;1.10;;
47922;SDS011;33688;44.354;9.228;2023-04-24T02:40:11;0.98;;;0.80;;
47922;SDS011;33688;44.354;9.228;2023-04-24T02:42:37;1.45;;;1.00;;
47922;SDS011;33688;44.354;9.228;2023-04-24T02:45:02;1.33;;;1.00;;
47922;SDS011;33688;44.354;9.228;2023-04-24T02:47:30;2.10;;;0.95;;
47922;SDS011;33688;44.354;9.228;2023-04-24T02:49:56;1.67;;;1.05;;
47922;SDS011;33688;44.354;9.228;2023-04-24T02:52:21;0.90;;;0.70;;
47922;SDS011;33688;44.354;9.228;2023-04-24T02:54:48;0.60;;;0.60;;
47922;SDS011;33688;44.354;9.228;2023-04-24T02:57:14;0.60;;;0.60;;
47922;SDS011;33688;44.354;9.228;2023-04-24T02:59:41;0.65;;;0.65;;
47922;SDS011;33688;44.354;9.228;2023-04-24T03:02:07;0.88;;;0.70;;
47922;SDS011;33688;44.354;9.228;2023-04-24T03:04:32;1.08;;;0.90;;
47922;SDS011;33688;44.354;9.228;2023-04-24T03:06:58;1.00;;;0.90;;
47922;SDS011;33688;44.354;9.228;2023-04-24T03:09:24;0.70;;;0.50;;
47922;SDS011;33688;44.354;9.228;2023-04-24T03:11:50;1.10;;;0.75;;
47922;SDS011;33688;44.354;9.228;2023-04-24T03:14:17;0.60;;;0.60;;
47922;SDS011;33688;44.354;9.228;2023-04-24T03:16:42;1.25;;;1.00;;
47922;SDS011;33688;44.354;9.228;2023-04-24T03:19:08;3.25;;;0.60;;
47922;SDS011;33688;44.354;9.228;2023-04-24T03:21:43;0.60;;;0.60;;
47922;SDS011;33688;44.354;9.228;2023-04-24T03:24:10;1.00;;;0.90;;
47922;SDS011;33688;44.354;9.228;2023-04-24T03:26:36;0.77;;;0.75;;
47922;SDS011;33688;44.354;9.228;2023-04-24T03:29:15;0.63;;;0.63;;
47922;SDS011;33688;44.354;9.228;2023-04-24T03:31:41;0.88;;;0.75;;
47922;SDS011;33688;44.354;9.228;2023-04-24T03:34:08;1.02;;;0.93;;
47922;SDS011;33688;44.354;9.228;2023-04-24T03:36:35;0.82;;;0.77;;
47922;SDS011;33688;44.354;9.228;2023-04-24T03:39:03;0.52;;;0.50;;
47922;SDS011;33688;44.354;9.228;2023-04-24T03:41:32;0.88;;;0.70;;
47922;SDS011;33688;44.354;9.228;2023-04-24T03:44:05;0.90;;;0.90;;
47922;SDS011;33688;44.354;9.228;2023-04-24T03:46:31;0.65;;;0.63;;
47922;SDS011;33688;44.354;9.228;2023-04-24T03:48:59;1.15;;;0.70;;
47922;SDS011;33688;44.354;9.228;2023-04-24T03:51:29;0.88;;;0.70;;
47922;SDS011;33688;44.354;9.228;2023-04-24T03:54:03;1.27;;;0.63;;
47922;SDS011;33688;44.354;9.228;2023-04-24T03:56:33;0.70;;;0.70;;
47922;SDS011;33688;44.354;9.228;2023-04-24T03:59:00;1.20;;;0.95;;
47922;SDS011;33688;44.354;9.228;2023-04-24T04:01:27;0.90;;;0.60;;
47922;SDS011;33688;44.354;9.228;2023-04-24T04:04:09;1.02;;;0.80;;
47922;SDS011;33688;44.354;9.228;2023-04-24T04:06:36;0.80;;;0.75;;
47922;SDS011;33688;44.354;9.228;2023-04-24T04:09:02;0.75;;;0.50;;
47922;SDS011;33688;44.354;9.228;2023-04-24T04:11:30;1.05;;;0.80;;
47922;SDS011;33688;44.354;9.228;2023-04-24T04:13:55;1.00;;;0.90;;
47922;SDS011;33688;44.354;9.228;2023-04-24T04:16:22;1.23;;;0.70;;
47922;SDS011;33688;44.354;9.228;2023-04-24T04:18:51;1.30;;;0.75;;
47922;SDS011;33688;44.354;9.228;2023-04-24T04:21:16;0.70;;;0.70;;
47922;SDS011;33688;44.354;9.228;2023-04-24T04:23:44;0.82;;;0.80;;
47922;SDS011;33688;44.354;9.228;2023-04-24T04:26:16;0.95;;;0.68;;
47922;SDS011;33688;44.354;9.228;2023-04-24T04:29:04;0.90;;;0.68;;
47922;SDS011;33688;44.354;9.228;2023-04-24T04:31:34;0.57;;;0.50;;
47922;SDS011;33688;44.354;9.228;2023-04-24T04:34:05;1.38;;;0.80;;
47922;SDS011;33688;44.354;9.228;2023-04-24T04:36:32;0.70;;;0.70;;
47922;SDS011;33688;44.354;9.228;2023-04-24T04:39:09;0.60;;;0.60;;
47922;SDS011;33688;44.354;9.228;2023-04-24T04:41:59;0.85;;;0.70;;
47922;SDS011;33688;44.354;9.228;2023-04-24T04:44:31;0.93;;;0.85;;
47922;SDS011;33688;44.354;9.228;2023-04-24T04:46:58;0.65;;;0.65;;
47922;SDS011;33688;44.354;9.228;2023-04-24T04:49:28;0.65;;;0.65;;
47922;SDS011;33688;44.354;9.228;2023-04-24T04:51:55;0.85;;;0.63;;
47922;SDS011;33688;44.354;9.228;2023-04-24T04:54:23;0.77;;;0.73;;
47922;SDS011;33688;44.354;9.228;2023-04-24T04:56:52;0.73;;;0.70;;
47922;SDS011;33688;44.354;9.228;2023-04-24T04:59:18;1.65;;;0.80;;
47922;SDS011;33688;44.354;9.228;2023-04-24T05:01:46;0.90;;;0.75;;
47922;SDS011;33688;44.354;9.228;2023-04-24T05:04:13;0.90;;;0.70;;
47922;SDS011;33688;44.354;9.228;2023-04-24T05:06:40;0.70;;;0.70;;
47922;SDS011;33688;44.354;9.228;2023-04-24T05:09:06;1.90;;;0.75;;
47922;SDS011;33688;44.354;9.228;2023-04-24T05:11:45;0.70;;;0.70;;
47922;SDS011;33688;44.354;9.228;2023-04-24T05:14:11;0.75;;;0.60;;
47922;SDS011;33688;44.354;9.228;2023-04-24T05:16:39;1.33;;;0.50;;
47922;SDS011;33688;44.354;9.228;2023-04-24T05:19:07;2.13;;;1.33;;
47922;SDS011;33688;44.354;9.228;2023-04-24T05:21:39;0.85;;;0.73;;
47922;SDS011;33688;44.354;9.228;2023-04-24T05:24:09;1.05;;;0.63;;
47922;SDS011;33688;44.354;9.228;2023-04-24T05:26:55;0.70;;;0.65;;
47922;SDS011;33688;44.354;9.228;2023-04-24T05:29:27;0.70;;;0.70;;
47922;SDS011;33688;44.354;9.228;2023-04-24T05:31:56;0.88;;;0.60;;
47922;SDS011;33688;44.354;9.228;2023-04-24T05:34:22;0.95;;;0.70;;
47922;SDS011;33688;44.354;9.228;2023-04-24T05:39:40;1.50;;;0.75;;
47922;SDS011;33688;44.354;9.228;2023-04-24T05:42:07;0.60;;;0.60;;
47922;SDS011;33688;44.354;9.228;2023-04-24T05:44:33;0.73;;;0.60;;
47922;SDS011;33688;44.354;9.228;2023-04-24T05:46:59;1.65;;;0.63;;
47922;SDS011;33688;44.354;9.228;2023-04-24T05:49:26;1.23;;;0.70;;
47922;SDS011;33688;44.354;9.228;2023-04-24T05:51:53;0.70;;;0.70;;
47922;SDS011;33688;44.354;9.228;2023-04-24T05:54:19;0.60;;;0.60;;
47922;SDS011;33688;44.354;9.228;2023-04-24T05:56:44;0.73;;;0.73;;
47922;SDS011;33688;44.354;9.228;2023-04-24T05:59:14;0.57;;;0.57;;
47922;SDS011;33688;44.354;9.228;2023-04-24T06:01:42;0.73;;;0.73;;
47922;SDS011;33688;44.354;9.228;2023-04-24T06:04:13;1.05;;;0.88;;
47922;SDS011;33688;44.354;9.228;2023-04-24T06:06:39;1.10;;;1.00;;
47922;SDS011;33688;44.354;9.228;2023-04-24T06:11:34;0.77;;;0.60;;
47922;SDS011;33688;44.354;9.228;2023-04-24T06:16:35;0.65;;;0.65;;
47922;SDS011;33688;44.354;9.228;2023-04-24T06:19:09;0.70;;;0.70;;
47922;SDS011;33688;44.354;9.228;2023-04-24T06:21:35;0.52;;;0.50;;
47922;SDS011;33688;44.354;9.228;2023-04-24T06:24:03;1.80;;;0.70;;
47922;SDS011;33688;44.354;9.228;2023-04-24T06:26:30;0.95;;;0.70;;
47922;SDS011;33688;44.354;9.228;2023-04-24T06:28:56;0.60;;;0.60;;
47922;SDS011;33688;44.354;9.228;2023-04-24T06:31:23;1.10;;;0.88;;
47922;SDS011;33688;44.354;9.228;2023-04-24T06:33:50;1.30;;;0.82;;
47922;SDS011;33688;44.354;9.228;2023-04-24T06:36:16;1.23;;;0.93;;
47922;SDS011;33688;44.354;9.228;2023-04-24T06:38:42;1.33;;;0.70;;
47922;SDS011;33688;44.354;9.228;2023-04-24T06:41:09;1.05;;;0.50;;
47922;SDS011;33688;44.354;9.228;2023-04-24T06:43:35;0.63;;;0.60;;
47922;SDS011;33688;44.354;9.228;2023-04-24T06:46:01;1.65;;;0.70;;
47922;SDS011;33688;44.354;9.228;2023-04-24T06:48:28;0.70;;;0.70;;
47922;SDS011;33688;44.354;9.228;2023-04-24T06:50:54;0.45;;;0.45;;
47922;SDS011;33688;44.354;9.228;2023-04-24T06:53:20;0.60;;;0.60;;
47922;SDS011;33688;44.354;9.228;2023-04-24T06:55:47;0.60;;;0.52;;
47922;SDS011;33688;44.354;9.228;2023-04-24T06:58:13;0.82;;;0.60;;
47922;SDS011;33688;44.354;9.228;2023-04-24T07:00:41;1.27;;;0.98;;
47922;SDS011;33688;44.354;9.228;2023-04-24T07:03:07;1.48;;;0.90;;
47922;SDS011;33688;44.354;9.228;2023-04-24T07:05:33;1.30;;;0.60;;
47922;SDS011;33688;44.354;9.228;2023-04-24T07:08:02;0.40;;;0.40;;
47922;SDS011;33688;44.354;9.228;2023-04-24T07:10:29;1.45;;;0.73;;
47922;SDS011;33688;44.354;9.228;2023-04-24T07:12:55;0.88;;;0.70;;
47922;SDS011;33688;44.354;9.228;2023-04-24T07:15:21;1.63;;;0.80;;
47922;SDS011;33688;44.354;9.228;2023-04-24T07:17:48;1.40;;;0.80;;
47922;SDS011;33688;44.354;9.228;2023-04-24T07:20:14;1.27;;;0.60;;
47922;SDS011;33688;44.354;9.228;2023-04-24T07:22:40;0.77;;;0.63;;
47922;SDS011;33688;44.354;9.228;2023-04-24T07:25:06;0.90;;;0.75;;
47922;SDS011;33688;44.354;9.228;2023-04-24T07:27:33;1.23;;;0.65;;
47922;SDS011;33688;44.354;9.228;2023-04-24T07:30:00;0.63;;;0.63;;
47922;SDS011;33688;44.354;9.228;2023-04-24T07:32:27;1.10;;;0.90;;
47922;SDS011;33688;44.354;9.228;2023-04-24T07:34:52;0.63;;;0.60;;
47922;SDS011;33688;44.354;9.228;2023-04-24T07:37:18;0.70;;;0.60;;
47922;SDS011;33688;44.354;9.228;2023-04-24T07:39:44;0.85;;;0.60;;
47922;SDS011;33688;44.354;9.228;2023-04-24T07:42:10;1.30;;;0.70;;
47922;SDS011;33688;44.354;9.228;2023-04-24T07:44:35;0.80;;;0.50;;
47922;SDS011;33688;44.354;9.228;2023-04-24T07:47:02;0.60;;;0.60;;
47922;SDS011;33688;44.354;9.228;2023-04-24T07:49:28;1.10;;;0.60;;
47922;SDS011;33688;44.354;9.228;2023-04-24T07:51:55;1.13;;;0.80;;
47922;SDS011;33688;44.354;9.228;2023-04-24T07:54:21;1.33;;;0.88;;
47922;SDS011;33688;44.354;9.228;2023-04-24T07:56:47;1.45;;;0.88;;
47922;SDS011;33688;44.354;9.228;2023-04-24T07:59:13;1.90;;;0.85;;
47922;SDS011;33688;44.354;9.228;2023-04-24T08:01:40;1.27;;;0.55;;
47922;SDS011;33688;44.354;9.228;2023-04-24T08:04:06;2.92;;;1.15;;
47922;SDS011;33688;44.354;9.228;2023-04-24T08:09:01;2.05;;;0.80;;
47922;SDS011;33688;44.354;9.228;2023-04-24T08:11:27;2.25;;;0.60;;
47922;SDS011;33688;44.354;9.228;2023-04-24T08:13:53;2.58;;;0.80;;
47922;SDS011;33688;44.354;9.228;2023-04-24T08:16:20;2.13;;;0.80;;
47922;SDS011;33688;44.354;9.228;2023-04-24T08:18:46;2.58;;;0.93;;
47922;SDS011;33688;44.354;9.228;2023-04-24T08:21:14;1.17;;;0.85;;
47922;SDS011;33688;44.354;9.228;2023-04-24T08:23:42;1.52;;;0.80;;
47922;SDS011;33688;44.354;9.228;2023-04-24T08:29:00;0.87;;;0.60;;
47922;SDS011;33688;44.354;9.228;2023-04-24T08:31:27;2.15;;;0.98;;
47922;SDS011;33688;44.354;9.228;2023-04-24T08:33:53;0.65;;;0.65;;
47922;SDS011;33688;44.354;9.228;2023-04-24T08:36:21;2.45;;;1.00;;
47922;SDS011;33688;44.354;9.228;2023-04-24T08:38:46;1.55;;;0.77;;
47922;SDS011;33688;44.354;9.228;2023-04-24T08:41:12;1.75;;;0.90;;
47922;SDS011;33688;44.354;9.228;2023-04-24T08:43:41;2.50;;;0.80;;
47922;SDS011;33688;44.354;9.228;2023-04-24T08:46:08;1.10;;;0.52;;
47922;SDS011;33688;44.354;9.228;2023-04-24T08:48:35;2.00;;;1.05;;
47922;SDS011;33688;44.354;9.228;2023-04-24T08:51:02;12.65;;;1.33;;
47922;SDS011;33688;44.354;9.228;2023-04-24T08:53:33;4.65;;;1.60;;
47922;SDS011;33688;44.354;9.228;2023-04-24T08:56:01;5.32;;;1.33;;
47922;SDS011;33688;44.354;9.228;2023-04-24T08:58:28;4.65;;;1.42;;
47922;SDS011;33688;44.354;9.228;2023-04-24T09:00:56;3.42;;;1.52;;
47922;SDS011;33688;44.354;9.228;2023-04-24T09:03:22;7.38;;;1.52;;
47922;SDS011;33688;44.354;9.228;2023-04-24T09:05:51;7.07;;;2.22;;
47922;SDS011;33688;44.354;9.228;2023-04-24T09:08:19;4.28;;;1.73;;
47922;SDS011;33688;44.354;9.228;2023-04-24T09:10:48;11.05;;;1.30;;
47922;SDS011;33688;44.354;9.228;2023-04-24T09:13:14;2.92;;;1.20;;
47922;SDS011;33688;44.354;9.228;2023-04-24T09:15:40;4.45;;;1.50;;
47922;SDS011;33688;44.354;9.228;2023-04-24T09:18:06;3.88;;;1.35;;
47922;SDS011;33688;44.354;9.228;2023-04-24T09:20:32;4.63;;;1.20;;
47922;SDS011;33688;44.354;9.228;2023-04-24T09:23:01;3.80;;;1.20;;
47922;SDS011;33688;44.354;9.228;2023-04-24T09:25:33;7.95;;;1.90;;
47922;SDS011;33688;44.354;9.228;2023-04-24T09:28:03;6.18;;;2.22;;
47922;SDS011;33688;44.354;9.228;2023-04-24T09:30:31;5.00;;;1.77;;
47922;SDS011;33688;44.354;9.228;2023-04-24T09:33:13;6.72;;;1.95;;
47922;SDS011;33688;44.354;9.228;2023-04-24T09:35:50;7.30;;;2.03;;
47922;SDS011;33688;44.354;9.228;2023-04-24T09:38:17;4.40;;;1.58;;
47922;SDS011;33688;44.354;9.228;2023-04-24T09:40:43;10.02;;;2.17;;
47922;SDS011;33688;44.354;9.228;2023-04-24T09:43:12;7.63;;;2.22;;
47922;SDS011;33688;44.354;9.228;2023-04-24T09:45:38;7.20;;;2.00;;
47922;SDS011;33688;44.354;9.228;2023-04-24T09:48:05;6.47;;;2.03;;
47922;SDS011;33688;44.354;9.228;2023-04-24T09:50:37;6.63;;;2.20;;
47922;SDS011;33688;44.354;9.228;2023-04-24T09:53:04;4.65;;;1.55;;
47922;SDS011;33688;44.354;9.228;2023-04-24T09:55:38;7.05;;;2.35;;
47922;SDS011;33688;44.354;9.228;2023-04-24T09:58:09;8.63;;;2.20;;
47922;SDS011;33688;44.354;9.228;2023-04-24T10:00:36;8.15;;;2.20;;
47922;SDS011;33688;44.354;9.228;2023-04-24T10:03:02;8.88;;;2.08;;
47922;SDS011;33688;44.354;9.228;2023-04-24T10:05:32;8.45;;;1.95;;
47922;SDS011;33688;44.354;9.228;2023-04-24T10:08:03;7.57;;;2.80;;
47922;SDS011;33688;44.354;9.228;2023-04-24T10:10:38;8.23;;;2.60;;
47922;SDS011;33688;44.354;9.228;2023-04-24T10:13:11;5.80;;;2.20;;
47922;SDS011;33688;44.354;9.228;2023-04-24T10:15:40;5.18;;;1.90;;
47922;SDS011;33688;44.354;9.228;2023-04-24T10:18:07;6.85;;;2.38;;
47922;SDS011;33688;44.354;9.228;2023-04-24T10:20:36;9.50;;;2.58;;
47922;SDS011;33688;44.354;9.228;2023-04-24T10:23:05;5.85;;;2.45;;
47922;SDS011;33688;44.354;9.228;2023-04-24T10:25:31;9.88;;;2.78;;
47922;SDS011;33688;44.354;9.228;2023-04-24T10:28:00;9.90;;;2.95;;
47922;SDS011;33688;44.354;9.228;2023-04-24T10:30:28;7.10;;;2.40;;
47922;SDS011;33688;44.354;9.228;2023-04-24T10:33:04;6.88;;;2.50;;
47922;SDS011;33688;44.354;9.228;2023-04-24T10:35:31;7.75;;;2.53;;
47922;SDS011;33688;44.354;9.228;2023-04-24T10:38:12;6.93;;;2.22;;
47922;SDS011;33688;44.354;9.228;2023-04-24T10:40:41;8.57;;;2.45;;
47922;SDS011;33688;44.354;9.228;2023-04-24T10:43:08;5.80;;;2.58;;
47922;SDS011;33688;44.354;9.228;2023-04-24T10:45:37;9.05;;;3.22;;
47922;SDS011;33688;44.354;9.228;2023-04-24T10:48:05;8.35;;;3.35;;
47922;SDS011;33688;44.354;9.228;2023-04-24T10:50:48;9.25;;;3.85;;
47922;SDS011;33688;44.354;9.228;2023-04-24T10:53:18;6.40;;;3.28;;
47922;SDS011;33688;44.354;9.228;2023-04-24T10:55:51;7.65;;;3.42;;
47922;SDS011;33688;44.354;9.228;2023-04-24T10:58:22;11.95;;;3.53;;
47922;SDS011;33688;44.354;9.228;2023-04-24T11:00:59;7.13;;;3.10;;
47922;SDS011;33688;44.354;9.228;2023-04-24T11:03:29;7.03;;;2.85;;
47922;SDS011;33688;44.354;9.228;2023-04-24T11:08:39;8.15;;;3.10;;
47922;SDS011;33688;44.354;9.228;2023-04-24T11:11:13;5.93;;;3.13;;
47922;SDS011;33688;44.354;9.228;2023-04-24T11:16:25;4.28;;;2.30;;
47922;SDS011;33688;44.354;9.228;2023-04-24T11:19:10;5.60;;;2.75;;
47922;SDS011;33688;44.354;9.228;2023-04-24T11:21:44;6.68;;;2.72;;
47922;SDS011;33688;44.354;9.228;2023-04-24T11:24:37;6.82;;;2.55;;
47922;SDS011;33688;44.354;9.228;2023-04-24T11:27:20;4.63;;;1.83;;
47922;SDS011;33688;44.354;9.228;2023-04-24T11:32:30;5.80;;;2.55;;
47922;SDS011;33688;44.354;9.228;2023-04-24T11:35:08;6.85;;;2.55;;
47922;SDS011;33688;44.354;9.228;2023-04-24T11:37:41;4.93;;;2.00;;
47922;SDS011;33688;44.354;9.228;2023-04-24T11:40:11;5.45;;;2.55;;
47922;SDS011;33688;44.354;9.228;2023-04-24T11:42:46;6.85;;;2.22;;
47922;SDS011;33688;44.354;9.228;2023-04-24T11:45:31;6.30;;;2.00;;
47922;SDS011;33688;44.354;9.228;2023-04-24T11:47:57;6.05;;;2.00;;
47922;SDS011;33688;44.354;9.228;2023-04-24T11:50:24;6.88;;;2.72;;
47922;SDS011;33688;44.354;9.228;2023-04-24T11:52:52;4.85;;;2.20;;
47922;SDS011;33688;44.354;9.228;2023-04-24T11:57:48;5.72;;;2.40;;
47922;SDS011;33688;44.354;9.228;2023-04-24T12:00:22;4.03;;;2.13;;
47922;SDS011;33688;44.354;9.228;2023-04-24T12:03:09;7.50;;;2.33;;
47922;SDS011;33688;44.354;9.228;2023-04-24T12:05:38;10.18;;;2.40;;
47922;SDS011;33688;44.354;9.228;2023-04-24T12:08:05;3.97;;;1.75;;
47922;SDS011;33688;44.354;9.228;2023-04-24T12:10:32;7.05;;;2.42;;
47922;SDS011;33688;44.354;9.228;2023-04-24T12:12:59;4.40;;;2.03;;
47922;SDS011;33688;44.354;9.228;2023-04-24T12:15:25;5.50;;;2.50;;
47922;SDS011;33688;44.354;9.228;2023-04-24T12:17:52;6.45;;;2.25;;
47922;SDS011;33688;44.354;9.228;2023-04-24T12:20:24;4.55;;;2.13;;
47922;SDS011;33688;44.354;9.228;2023-04-24T12:22:56;4.50;;;1.90;;
47922;SDS011;33688;44.354;9.228;2023-04-24T12:25:27;7.97;;;2.15;;
47922;SDS011;33688;44.354;9.228;2023-04-24T12:30:30;4.15;;;1.65;;
47922;SDS011;33688;44.354;9.228;2023-04-24T12:32:59;5.03;;;2.03;;
47922;SDS011;33688;44.354;9.228;2023-04-24T12:35:27;4.47;;;1.95;;
47922;SDS011;33688;44.354;9.228;2023-04-24T12:38:05;3.58;;;1.50;;
47922;SDS011;33688;44.354;9.228;2023-04-24T12:40:33;6.03;;;2.53;;
47922;SDS011;33688;44.354;9.228;2023-04-24T12:43:00;3.75;;;1.90;;
47922;SDS011;33688;44.354;9.228;2023-04-24T12:45:26;4.10;;;2.35;;
47922;SDS011;33688;44.354;9.228;2023-04-24T12:50:21;5.32;;;2.20;;
47922;SDS011;33688;44.354;9.228;2023-04-24T12:52:47;6.03;;;2.00;;
47922;SDS011;33688;44.354;9.228;2023-04-24T12:55:13;4.07;;;1.70;;
47922;SDS011;33688;44.354;9.228;2023-04-24T12:57:39;4.88;;;2.55;;
47922;SDS011;33688;44.354;9.228;2023-04-24T13:00:07;5.88;;;2.20;;
47922;SDS011;33688;44.354;9.228;2023-04-24T13:02:36;4.40;;;2.17;;
47922;SDS011;33688;44.354;9.228;2023-04-24T13:07:32;4.72;;;1.58;;
47922;SDS011;33688;44.354;9.228;2023-04-24T13:09:58;4.57;;;1.73;;
47922;SDS011;33688;44.354;9.228;2023-04-24T13:12:23;3.80;;;2.00;;
47922;SDS011;33688;44.354;9.228;2023-04-24T13:14:50;3.92;;;1.85;;
47922;SDS011;33688;44.354;9.228;2023-04-24T13:17:16;5.78;;;2.00;;
47922;SDS011;33688;44.354;9.228;2023-04-24T13:19:42;2.90;;;1.60;;
47922;SDS011;33688;44.354;9.228;2023-04-24T13:22:09;2.35;;;1.45;;
47922;SDS011;33688;44.354;9.228;2023-04-24T13:24:36;6.70;;;2.00;;
47922;SDS011;33688;44.354;9.228;2023-04-24T13:27:05;5.25;;;1.80;;
47922;SDS011;33688;44.354;9.228;2023-04-24T13:29:30;3.80;;;1.45;;
47922;SDS011;33688;44.354;9.228;2023-04-24T13:31:56;6.55;;;1.98;;
47922;SDS011;33688;44.354;9.228;2023-04-24T13:34:25;2.65;;;1.50;;
47922;SDS011;33688;44.354;9.228;2023-04-24T13:36:52;3.75;;;1.50;;
47922;SDS011;33688;44.354;9.228;2023-04-24T13:39:20;5.55;;;2.08;;
47922;SDS011;33688;44.354;9.228;2023-04-24T13:41:46;5.45;;;2.13;;
47922;SDS011;33688;44.354;9.228;2023-04-24T13:44:13;4.60;;;2.13;;
47922;SDS011;33688;44.354;9.228;2023-04-24T13:46:41;3.40;;;1.60;;
47922;SDS011;33688;44.354;9.228;2023-04-24T13:49:09;5.70;;;1.90;;
47922;SDS011;33688;44.354;9.228;2023-04-24T13:51:36;5.03;;;1.67;;
47922;SDS011;33688;44.354;9.228;2023-04-24T13:54:02;5.00;;;1.63;;
47922;SDS011;33688;44.354;9.228;2023-04-24T13:56:28;5.88;;;1.58;;
47922;SDS011;33688;44.354;9.228;2023-04-24T13:58:54;9.65;;;1.95;;
47922;SDS011;33688;44.354;9.228;2023-04-24T14:01:22;6.53;;;2.00;;
47922;SDS011;33688;44.354;9.228;2023-04-24T14:03:54;4.15;;;1.38;;
47922;SDS011;33688;44.354;9.228;2023-04-24T14:06:21;4.22;;;1.55;;
47922;SDS011;33688;44.354;9.228;2023-04-24T14:08:48;4.60;;;1.33;;
47922;SDS011;33688;44.354;9.228;2023-04-24T14:11:15;2.80;;;1.42;;
47922;SDS011;33688;44.354;9.228;2023-04-24T14:13:43;3.67;;;1.63;;
47922;SDS011;33688;44.354;9.228;2023-04-24T14:16:10;4.60;;;1.70;;
47922;SDS011;33688;44.354;9.228;2023-04-24T14:18:36;4.05;;;1.63;;
47922;SDS011;33688;44.354;9.228;2023-04-24T14:21:02;2.80;;;1.40;;
47922;SDS011;33688;44.354;9.228;2023-04-24T14:26:22;3.38;;;1.58;;
47922;SDS011;33688;44.354;9.228;2023-04-24T14:28:49;4.88;;;1.67;;
47922;SDS011;33688;44.354;9.228;2023-04-24T14:31:15;5.57;;;1.40;;
47922;SDS011;33688;44.354;9.228;2023-04-24T14:33:43;4.22;;;1.85;;
47922;SDS011;33688;44.354;9.228;2023-04-24T14:36:10;3.53;;;1.45;;
47922;SDS011;33688;44.354;9.228;2023-04-24T14:38:38;5.95;;;1.58;;
47922;SDS011;33688;44.354;9.228;2023-04-24T14:41:04;2.55;;;1.27;;
47922;SDS011;33688;44.354;9.228;2023-04-24T14:43:35;2.88;;;1.65;;
47922;SDS011;33688;44.354;9.228;2023-04-24T14:46:02;3.13;;;1.60;;
47922;SDS011;33688;44.354;9.228;2023-04-24T14:48:29;3.28;;;1.55;;
47922;SDS011;33688;44.354;9.228;2023-04-24T14:53:47;4.67;;;1.57;;
47922;SDS011;33688;44.354;9.228;2023-04-24T14:56:13;5.35;;;1.95;;
47922;SDS011;33688;44.354;9.228;2023-04-24T14:58:39;4.50;;;1.80;;
47922;SDS011;33688;44.354;9.228;2023-04-24T15:01:05;2.13;;;1.20;;
47922;SDS011;33688;44.354;9.228;2023-04-24T15:03:31;4.10;;;1.65;;
47922;SDS011;33688;44.354;9.228;2023-04-24T15:05:57;3.60;;;1.50;;
47922;SDS011;33688;44.354;9.228;2023-04-24T15:08:23;6.53;;;1.65;;
47922;SDS011;33688;44.354;9.228;2023-04-24T15:10:50;2.78;;;1.58;;
47922;SDS011;33688;44.354;9.228;2023-04-24T15:13:15;3.47;;;1.30;;
47922;SDS011;33688;44.354;9.228;2023-04-24T15:15:41;5.57;;;1.75;;
47922;SDS011;33688;44.354;9.228;2023-04-24T15:18:08;2.83;;;1.30;;
47922;SDS011;33688;44.354;9.228;2023-04-24T15:20:36;5.68;;;2.13;;
47922;SDS011;33688;44.354;9.228;2023-04-24T15:23:04;3.95;;;1.20;;
47922;SDS011;33688;44.354;9.228;2023-04-24T15:25:32;1.42;;;1.10;;
47922;SDS011;33688;44.354;9.228;2023-04-24T15:27:58;2.58;;;1.23;;
47922;SDS011;33688;44.354;9.228;2023-04-24T15:32:52;3.45;;;1.40;;
47922;SDS011;33688;44.354;9.228;2023-04-24T15:35:18;2.65;;;1.20;;
47922;SDS011;33688;44.354;9.228;2023-04-24T15:37:44;2.80;;;1.40;;
47922;SDS011;33688;44.354;9.228;2023-04-24T15:40:10;3.60;;;1.63;;
47922;SDS011;33688;44.354;9.228;2023-04-24T15:42:38;2.58;;;1.35;;
47922;SDS011;33688;44.354;9.228;2023-04-24T15:45:05;3.33;;;1.35;;
47922;SDS011;33688;44.354;9.228;2023-04-24T15:47:34;3.53;;;1.80;;
47922;SDS011;33688;44.354;9.228;2023-04-24T15:50:00;2.83;;;1.20;;